createdAt,value
2023-02-27T00:00:57.842Z,2.15
2023-02-27T00:03:25.879Z,2.03
2023-02-27T00:05:53.896Z,2.13
2023-02-27T00:08:21.976Z,2.25
2023-02-27T00:10:50.684Z,3.13
2023-02-27T00:13:19.039Z,2.65
2023-02-27T00:15:49.750Z,3.95
2023-02-27T00:18:17.850Z,2.95
2023-02-27T00:20:45.823Z,2.42
2023-02-27T00:23:15.924Z,2.47
2023-02-27T00:25:43.807Z,1.85
2023-02-27T00:28:11.938Z,2.28
2023-02-27T00:30:40.368Z,3.80
2023-02-27T00:33:09.269Z,3.13
2023-02-27T00:35:37.315Z,2.05
2023-02-27T00:38:05.501Z,3.42
2023-02-27T00:40:36.106Z,2.03
2023-02-27T00:43:04.994Z,2.90
2023-02-27T00:45:32.854Z,3.42
2023-02-27T00:48:01.980Z,3.38
2023-02-27T00:50:29.885Z,3.47
2023-02-27T00:52:58.156Z,2.30
2023-02-27T00:55:27.351Z,3.60
2023-02-27T00:57:55.451Z,3.05
2023-02-27T04:46:25.890Z,2.88
2023-02-27T04:49:01.497Z,2.17
2023-02-27T04:51:57.571Z,1.93
2023-02-27T04:54:53.902Z,3.80
2023-02-27T04:57:26.871Z,1.40
2023-02-27T04:59:56.530Z,1.07
2023-02-27T05:03:14.948Z,1.63
2023-02-27T05:05:44.310Z,1.93
2023-02-27T05:08:22.822Z,2.47
2023-02-27T05:11:05.026Z,2.50
2023-02-27T05:22:30.746Z,1.33
2023-02-27T05:25:29.179Z,1.93
2023-02-27T05:27:59.405Z,2.17
2023-02-27T05:30:39.033Z,2.13
2023-02-27T05:33:15.003Z,2.23
2023-02-27T05:35:53.578Z,1.63
2023-02-27T05:38:32.770Z,3.30
2023-02-27T05:41:20.408Z,2.50
2023-02-27T05:44:17.055Z,1.57
2023-02-27T05:46:52.545Z,2.70
2023-02-27T05:49:25.709Z,1.73
2023-02-27T05:51:58.579Z,4.30
2023-02-27T05:54:44.977Z,2.37
2023-02-27T05:57:17.118Z,2.93
2023-02-27T06:00:04.728Z,6.47
2023-02-27T06:02:40.551Z,5.07
2023-02-27T06:05:11.336Z,2.00
2023-02-27T06:07:39.467Z,3.90
2023-02-27T06:10:08.344Z,3.07
2023-02-27T06:12:36.208Z,2.03
2023-02-27T06:15:04.086Z,3.67
2023-02-27T06:17:31.796Z,2.83
2023-02-27T06:19:59.676Z,3.87
2023-02-27T06:22:27.463Z,5.37
2023-02-27T06:24:55.460Z,6.30
2023-02-27T06:27:23.185Z,5.83
2023-02-27T06:29:51.078Z,5.23
2023-02-27T06:32:19.062Z,6.10
2023-02-27T06:34:47.193Z,5.30
2023-02-27T06:37:17.699Z,6.07
2023-02-27T06:39:45.618Z,4.87
2023-02-27T06:42:14.190Z,6.77
2023-02-27T06:44:42.276Z,4.90
2023-02-27T06:47:10.200Z,6.77
2023-02-27T06:49:38.154Z,5.53
2023-02-27T06:52:05.940Z,4.90
2023-02-27T06:54:34.326Z,6.35
2023-02-27T06:57:02.251Z,6.70
2023-02-27T06:59:30.270Z,4.90
2023-02-27T07:01:59.438Z,6.53
2023-02-27T07:04:27.550Z,7.03
2023-02-27T07:07:36.017Z,3.95
2023-02-27T07:09:44.348Z,5.70
2023-02-27T07:12:12.995Z,6.65
2023-02-27T07:14:41.051Z,5.30
2023-02-27T07:17:08.856Z,5.40
2023-02-27T07:19:37.587Z,5.57
2023-02-27T07:22:05.549Z,6.47
2023-02-27T07:24:35.984Z,6.18
2023-02-27T07:27:04.104Z,6.60
2023-02-27T07:29:32.175Z,7.00
2023-02-27T07:32:01.713Z,8.23
2023-02-27T07:34:29.639Z,6.90
2023-02-27T07:36:57.884Z,8.88
2023-02-27T07:39:25.616Z,8.68
2023-02-27T07:41:53.597Z,6.78
2023-02-27T07:44:23.180Z,5.55
2023-02-27T07:46:51.002Z,7.03
2023-02-27T07:49:18.795Z,6.70
2023-02-27T07:51:46.799Z,5.82
2023-02-27T07:54:14.971Z,6.93
2023-02-27T07:56:46.522Z,8.35
2023-02-27T07:59:14.287Z,9.10
2023-02-27T08:01:42.234Z,5.78
2023-02-27T08:04:10.360Z,5.07
2023-02-27T08:06:38.523Z,4.03
2023-02-27T08:09:06.727Z,6.50
2023-02-27T08:11:34.720Z,5.28
2023-02-27T08:14:05.829Z,6.93
2023-02-27T08:16:34.075Z,6.50
2023-02-27T08:19:03.131Z,4.35
2023-02-27T08:21:31.155Z,8.00
2023-02-27T08:23:59.241Z,5.22
2023-02-27T08:26:27.223Z,4.72
2023-02-27T08:28:55.501Z,6.45
2023-02-27T08:31:23.862Z,6.30
2023-02-27T08:34:09.956Z,4.85
2023-02-27T08:36:39.082Z,6.30
2023-02-27T08:39:07.966Z,5.90
2023-02-27T08:41:36.228Z,4.20
2023-02-27T08:44:04.465Z,4.22
2023-02-27T08:46:32.998Z,3.88
2023-02-27T08:49:00.939Z,4.30
2023-02-27T08:51:29.377Z,4.30
2023-02-27T08:53:59.312Z,3.72
2023-02-27T08:56:28.881Z,6.80
2023-02-27T08:58:57.294Z,5.20
2023-02-27T09:01:32.085Z,4.85
2023-02-27T09:04:00.756Z,4.93
2023-02-27T09:06:32.032Z,7.03
2023-02-27T09:09:00.365Z,5.40
2023-02-27T09:11:28.962Z,6.28
2023-02-27T09:14:03.476Z,8.50
2023-02-27T09:16:31.823Z,10.05
2023-02-27T09:19:00.628Z,5.97
2023-02-27T09:21:29.954Z,4.47
2023-02-27T09:24:17.210Z,4.97
2023-02-27T09:26:47.320Z,4.00
2023-02-27T09:29:15.492Z,6.03
2023-02-27T09:31:43.770Z,6.53
2023-02-27T09:34:11.788Z,7.55
2023-02-27T09:36:39.597Z,7.15
2023-02-27T09:39:10.187Z,7.68
2023-02-27T09:41:59.157Z,6.25
2023-02-27T09:44:54.654Z,11.18
2023-02-27T09:47:35.108Z,4.75
2023-02-27T09:50:06.655Z,6.20
2023-02-27T09:52:37.079Z,6.47
2023-02-27T09:55:21.599Z,3.93
2023-02-27T09:58:04.952Z,11.45
2023-02-27T10:00:38.961Z,4.53
2023-02-27T10:03:26.469Z,4.55
2023-02-27T10:06:26.788Z,5.00
2023-02-27T10:09:09.805Z,7.38
2023-02-27T10:11:51.940Z,3.38
2023-02-27T10:14:39.372Z,3.35
2023-02-27T10:17:31.145Z,3.03
2023-02-27T10:20:00.705Z,4.43
2023-02-27T10:22:38.024Z,4.53
2023-02-27T10:25:29.690Z,5.70
2023-02-27T10:28:22.036Z,6.88
2023-02-27T10:30:54.889Z,3.28
2023-02-27T10:33:28.376Z,3.05
2023-02-27T10:35:56.714Z,2.65
2023-02-27T10:38:57.397Z,2.40
2023-02-27T10:41:29.537Z,3.65
2023-02-27T10:43:59.878Z,3.72
2023-02-27T10:46:33.342Z,2.57
2023-02-27T10:49:05.819Z,3.03
2023-02-27T10:51:38.406Z,1.83
2023-02-27T10:54:25.980Z,4.47
2023-02-27T10:56:57.129Z,3.00
2023-02-27T10:59:28.102Z,2.90
2023-02-27T11:01:59.342Z,3.28
2023-02-27T11:04:33.298Z,1.48
2023-02-27T11:07:04.499Z,2.15
2023-02-27T11:09:33.960Z,1.80
2023-02-27T11:12:20.764Z,2.65
2023-02-27T11:14:54.759Z,3.30
2023-02-27T11:17:49.144Z,6.93
2023-02-27T11:20:40.796Z,1.95
2023-02-27T11:23:22.942Z,2.50
2023-02-27T11:26:12.313Z,2.00
2023-02-27T11:28:40.166Z,1.42
2023-02-27T11:31:23.319Z,2.03
2023-02-27T11:34:01.892Z,1.63
2023-02-27T11:36:44.009Z,1.55
2023-02-27T11:39:39.985Z,3.20
2023-02-27T11:42:18.740Z,2.60
2023-02-27T11:45:07.328Z,3.00
2023-02-27T11:47:38.267Z,1.73
2023-02-27T11:50:23.544Z,3.42
2023-02-27T11:52:54.710Z,3.17
2023-02-27T11:55:24.661Z,2.53
2023-02-27T11:58:03.246Z,2.08
2023-02-27T12:00:39.740Z,1.20
2023-02-27T12:03:27.524Z,2.42
2023-02-27T12:06:01.131Z,2.17
2023-02-27T12:08:54.994Z,1.20
2023-02-27T12:11:42.663Z,1.55
2023-02-27T12:14:21.939Z,3.75
2023-02-27T12:16:59.819Z,1.77
2023-02-27T12:19:31.982Z,2.17
2023-02-27T12:22:27.300Z,1.90
2023-02-27T12:25:11.421Z,1.88
2023-02-27T12:27:46.577Z,1.88
2023-02-27T12:30:20.672Z,1.58
2023-02-27T12:33:27.169Z,2.80
2023-02-27T12:36:00.807Z,3.05
2023-02-27T12:38:29.235Z,2.97
2023-02-27T12:41:23.590Z,3.20
2023-02-27T12:44:04.987Z,1.75
2023-02-27T12:46:44.155Z,2.88
2023-02-27T12:49:22.950Z,3.13
2023-02-27T12:52:01.666Z,1.80
2023-02-27T12:55:14.810Z,1.85
2023-02-27T12:57:45.280Z,2.95
2023-02-27T13:00:20.928Z,2.85
2023-02-27T13:02:59.372Z,2.38
2023-02-27T13:05:36.132Z,1.30
2023-02-27T13:08:28.723Z,2.85
2023-02-27T13:11:23.671Z,1.25
2023-02-27T13:14:02.210Z,1.50
2023-02-27T13:16:45.152Z,1.38
2023-02-27T13:19:32.028Z,2.95
2023-02-27T13:22:31.793Z,2.08
2023-02-27T13:25:03.650Z,1.30
2023-02-27T13:27:38.532Z,2.17
2023-02-27T13:30:15.630Z,1.02
2023-02-27T13:32:58.937Z,1.67
2023-02-27T13:35:36.443Z,1.67
2023-02-27T13:38:32.967Z,1.52
2023-02-27T13:41:36.062Z,2.88
2023-02-27T13:44:22.941Z,2.13
2023-02-27T13:46:50.914Z,0.80
2023-02-27T13:49:30.221Z,0.98
2023-02-27T13:52:00.598Z,2.03
2023-02-27T13:54:41.326Z,2.47
2023-02-27T13:57:21.944Z,1.80
2023-02-27T13:59:56.304Z,1.42
2023-02-27T14:02:32.178Z,1.73
2023-02-27T14:05:03.423Z,1.95
2023-02-27T14:07:48.095Z,2.08
2023-02-27T14:10:26.542Z,1.08
2023-02-27T14:12:54.838Z,1.35
2023-02-27T14:15:25.340Z,2.38
2023-02-27T14:18:02.429Z,2.65
2023-02-27T14:20:40.946Z,1.85
2023-02-27T14:23:22.372Z,2.17
2023-02-27T14:25:55.135Z,2.63
2023-02-27T14:28:32.506Z,1.42
2023-02-27T14:31:06.141Z,1.55
2023-02-27T14:33:55.611Z,0.77
2023-02-27T14:36:27.682Z,1.00
2023-02-27T14:38:58.822Z,1.17
2023-02-27T14:41:27.586Z,1.52
2023-02-27T14:43:58.065Z,1.85
2023-02-27T14:46:32.407Z,1.50
2023-02-27T14:49:03.103Z,0.60
2023-02-27T14:51:36.738Z,0.68
2023-02-27T14:54:13.869Z,0.93
2023-02-27T14:56:43.025Z,2.08
2023-02-27T14:59:47.600Z,1.08
2023-02-27T15:02:31.978Z,0.52
2023-02-27T15:05:03.066Z,1.90
2023-02-27T15:07:32.974Z,0.95
2023-02-27T15:10:05.893Z,2.00
2023-02-27T15:12:38.605Z,0.98
2023-02-27T15:15:09.222Z,1.77
2023-02-27T15:17:41.389Z,2.55
2023-02-27T15:20:33.424Z,0.65
2023-02-27T15:25:38.418Z,1.80
2023-02-27T15:28:08.774Z,3.75
2023-02-27T15:30:36.769Z,1.80
2023-02-27T15:33:05.037Z,2.65
2023-02-27T15:35:43.803Z,1.70
2023-02-27T15:38:32.811Z,1.92
2023-02-27T15:41:02.052Z,2.88
2023-02-27T15:43:30.524Z,1.73
2023-02-27T15:45:58.645Z,1.52
2023-02-27T15:48:26.841Z,2.20
2023-02-27T15:51:03.992Z,2.90
2023-02-27T15:53:34.346Z,1.40
2023-02-27T15:56:06.364Z,1.60
2023-02-27T15:58:38.126Z,1.10
2023-02-27T16:01:10.819Z,1.58
2023-02-27T16:03:44.229Z,0.77
2023-02-27T16:06:47.371Z,1.55
2023-02-27T16:09:49.453Z,2.83
2023-02-27T16:15:23.821Z,1.98
2023-02-27T16:17:55.778Z,1.35
2023-02-27T16:20:55.188Z,0.50
2023-02-27T16:23:28.004Z,2.22
2023-02-27T16:26:28.450Z,1.13
2023-02-27T16:29:20.107Z,1.67
2023-02-27T16:31:53.528Z,1.52
2023-02-27T16:34:47.566Z,0.68
2023-02-27T16:37:23.907Z,0.70
2023-02-27T16:39:57.192Z,2.22
2023-02-27T16:42:25.451Z,0.65
2023-02-27T16:44:53.378Z,2.35
2023-02-27T16:47:21.323Z,0.95
2023-02-27T16:49:51.887Z,2.13
2023-02-27T16:52:22.845Z,1.42
2023-02-27T16:54:50.873Z,4.78
2023-02-27T16:57:18.778Z,3.15
2023-02-27T16:59:46.991Z,4.45
2023-02-27T17:02:17.436Z,2.53
2023-02-27T17:04:48.158Z,3.00
2023-02-27T17:07:18.040Z,2.63
2023-02-27T17:09:49.441Z,2.03
2023-02-27T17:12:17.579Z,1.70
2023-02-27T17:14:45.602Z,1.40
2023-02-27T17:17:19.285Z,3.17
2023-02-27T17:19:47.303Z,1.90
2023-02-27T17:22:15.520Z,0.98
2023-02-27T17:24:43.485Z,1.50
2023-02-27T17:27:16.218Z,2.63
2023-02-27T17:29:44.120Z,2.55
2023-02-27T17:32:12.221Z,1.75
2023-02-27T17:34:40.642Z,0.70
2023-02-27T17:37:08.451Z,1.85
2023-02-27T17:39:36.241Z,1.17
2023-02-27T17:42:04.364Z,1.25
2023-02-27T17:44:32.314Z,1.98
2023-02-27T17:47:00.150Z,1.80
2023-02-27T17:49:28.060Z,1.13
2023-02-27T17:51:55.931Z,1.60
2023-02-27T17:54:23.854Z,1.63
2023-02-27T17:56:51.746Z,2.85
2023-02-27T17:59:19.793Z,4.30
2023-02-27T18:01:47.912Z,3.83
2023-02-27T18:04:17.565Z,1.48
2023-02-27T18:06:47.006Z,1.77
2023-02-27T18:09:14.934Z,1.27
2023-02-27T18:11:42.980Z,5.28
2023-02-27T18:14:10.924Z,2.70
2023-02-27T18:16:42.111Z,1.25
2023-02-27T18:19:10.176Z,1.33
2023-02-27T18:21:40.211Z,1.65
2023-02-27T18:24:08.474Z,0.98
2023-02-27T18:26:36.730Z,1.52
2023-02-27T18:29:10.162Z,1.23
2023-02-27T18:31:43.728Z,1.25
2023-02-27T18:34:15.292Z,0.80
2023-02-27T18:36:43.327Z,1.70
2023-02-27T18:39:11.294Z,2.53
2023-02-27T18:41:39.561Z,1.30
2023-02-27T18:44:08.676Z,0.80
2023-02-27T18:46:37.513Z,0.88
2023-02-27T18:49:05.589Z,0.70
2023-02-27T18:51:33.407Z,3.40
2023-02-27T18:54:04.268Z,1.25
2023-02-27T18:56:33.173Z,5.70
2023-02-27T18:59:05.416Z,4.05
2023-02-27T19:01:38.531Z,4.07
2023-02-27T19:04:07.657Z,2.97
2023-02-27T19:06:41.008Z,3.72
2023-02-27T19:09:11.861Z,3.58
2023-02-27T19:11:41.099Z,4.50
2023-02-27T19:14:11.281Z,4.30
2023-02-27T19:16:42.432Z,4.07
2023-02-27T19:19:12.084Z,2.45
2023-02-27T19:21:40.313Z,4.78
2023-02-27T19:24:09.897Z,3.83
2023-02-27T19:26:37.847Z,2.55
2023-02-27T19:29:06.676Z,4.80
2023-02-27T19:31:38.248Z,2.38
2023-02-27T19:34:06.211Z,1.83
2023-02-27T19:36:35.164Z,1.75
2023-02-27T19:39:04.046Z,1.42
2023-02-27T19:41:33.492Z,2.30
2023-02-27T19:44:01.755Z,3.92
2023-02-27T19:46:32.679Z,2.78
2023-02-27T19:49:03.447Z,3.17
2023-02-27T19:51:31.527Z,2.40
2023-02-27T19:54:02.267Z,3.08
2023-02-27T19:56:31.035Z,1.95
2023-02-27T19:59:01.129Z,4.13
2023-02-27T20:01:31.733Z,1.58
2023-02-27T20:04:01.420Z,2.00
2023-02-27T20:06:32.222Z,2.45
2023-02-27T20:09:00.542Z,4.10
2023-02-27T20:11:33.283Z,2.17
2023-02-27T20:14:01.248Z,3.13
2023-02-27T20:16:30.923Z,1.75
2023-02-27T20:18:59.065Z,2.15
2023-02-27T20:21:28.797Z,2.97
2023-02-27T20:23:58.079Z,2.40
2023-02-27T20:26:32.029Z,4.57
2023-02-27T20:29:03.270Z,3.53
2023-02-27T20:31:32.754Z,3.70
2023-02-27T20:34:08.728Z,3.50
2023-02-27T20:36:37.754Z,2.90
2023-02-27T20:39:06.746Z,2.92
2023-02-27T20:41:35.643Z,1.95
2023-02-27T20:44:05.123Z,1.73
2023-02-27T20:46:33.156Z,2.90
2023-02-27T20:49:02.895Z,3.75
2023-02-27T20:51:36.257Z,1.80
2023-02-27T20:54:07.508Z,2.03
2023-02-27T20:56:40.080Z,3.08
2023-02-27T20:59:10.875Z,3.30
2023-02-27T21:01:39.064Z,2.50
2023-02-27T21:04:07.389Z,1.77
2023-02-27T21:06:35.818Z,1.35
2023-02-27T21:09:07.415Z,1.48
2023-02-27T21:11:37.084Z,2.25
2023-02-27T21:14:09.388Z,1.30
2023-02-27T21:16:38.858Z,2.97
2023-02-27T21:19:07.533Z,1.35
2023-02-27T21:21:38.247Z,1.67
2023-02-27T21:24:06.525Z,2.80
2023-02-27T21:26:39.902Z,2.08
2023-02-27T21:29:11.985Z,1.80
2023-02-27T21:31:41.242Z,3.53
2023-02-27T21:34:12.089Z,2.42
2023-02-27T21:36:45.230Z,1.50
2023-02-27T21:39:16.224Z,1.98
2023-02-27T21:41:45.125Z,3.07
2023-02-27T21:44:15.019Z,2.35
2023-02-27T21:46:43.141Z,1.55
2023-02-27T21:49:17.529Z,1.77
2023-02-27T21:51:46.545Z,3.45
2023-02-27T21:54:16.112Z,2.30
2023-02-27T21:56:45.029Z,2.70
2023-02-27T21:59:12.991Z,2.38
2023-02-27T22:01:41.084Z,2.88
2023-02-27T22:04:09.029Z,2.03
2023-02-27T22:06:37.191Z,3.55
2023-02-27T22:09:06.543Z,2.30
2023-02-27T22:11:35.989Z,2.70
2023-02-27T22:14:05.905Z,1.50
2023-02-27T22:16:36.875Z,3.25
2023-02-27T22:19:13.935Z,2.20
2023-02-27T22:21:44.767Z,2.25
2023-02-27T22:24:15.629Z,3.40
2023-02-27T22:26:44.734Z,3.43
2023-02-27T22:29:12.825Z,1.83
2023-02-27T22:31:40.805Z,2.20
2023-02-27T22:34:13.087Z,2.70
2023-02-27T22:36:44.155Z,2.08
2023-02-27T22:39:12.756Z,1.65
2023-02-27T22:41:43.973Z,2.92
2023-02-27T22:44:14.159Z,1.83
2023-02-27T22:46:45.497Z,2.40
2023-02-27T22:49:19.715Z,4.63
2023-02-27T22:51:51.055Z,2.40
2023-02-27T22:54:21.429Z,3.33
2023-02-27T22:56:51.561Z,3.25
2023-02-27T22:59:20.198Z,3.00
2023-02-27T23:01:48.870Z,3.15
2023-02-27T23:04:21.037Z,4.05
2023-02-27T23:06:51.518Z,1.98
2023-02-27T23:09:21.959Z,3.00
2023-02-27T23:11:52.583Z,1.73
2023-02-27T23:14:21.957Z,3.60
2023-02-27T23:16:51.714Z,2.67
2023-02-27T23:19:21.602Z,2.60
2023-02-27T23:21:49.726Z,2.72
2023-02-27T23:24:19.345Z,2.63
2023-02-27T23:26:49.710Z,2.75
2023-02-27T23:29:18.580Z,2.20
2023-02-27T23:31:46.597Z,3.05
2023-02-27T23:34:14.655Z,2.50
2023-02-27T23:36:42.577Z,3.08
2023-02-27T23:39:13.560Z,3.25
2023-02-27T23:41:41.359Z,3.37
2023-02-27T23:44:09.323Z,2.22
2023-02-27T23:46:37.571Z,23.52
2023-02-27T23:49:05.895Z,34.42
2023-02-27T23:51:34.095Z,9.82
2023-02-27T23:54:02.274Z,10.20
2023-02-27T23:56:31.227Z,6.93
2023-02-27T23:59:02.037Z,6.03
